sensor_id;sensor_type;location;lat;lon;timestamp;P1;durP1;ratioP1;P2;durP2;ratioP2
56457;SDS011;42360;42.918;12.366;2023-03-23T00:01:00;8.77;;;6.18;;
56457;SDS011;42360;42.918;12.366;2023-03-23T00:03:26;14.98;;;8.02;;
56457;SDS011;42360;42.918;12.366;2023-03-23T00:05:54;13.50;;;7.70;;
56457;SDS011;42360;42.918;12.366;2023-03-23T00:08:24;10.38;;;6.38;;
56457;SDS011;42360;42.918;12.366;2023-03-23T00:10:51;6.95;;;4.95;;
56457;SDS011;42360;42.918;12.366;2023-03-23T00:13:18;7.75;;;5.20;;
56457;SDS011;42360;42.918;12.366;2023-03-23T00:15:45;6.85;;;5.22;;
56457;SDS011;42360;42.918;12.366;2023-03-23T00:18:14;11.00;;;6.53;;
56457;SDS011;42360;42.918;12.366;2023-03-23T00:20:54;9.35;;;5.70;;
56457;SDS011;42360;42.918;12.366;2023-03-23T00:23:21;9.43;;;6.78;;
56457;SDS011;42360;42.918;12.366;2023-03-23T00:25:55;10.32;;;5.38;;
56457;SDS011;42360;42.918;12.366;2023-03-23T00:28:24;7.55;;;5.07;;
56457;SDS011;42360;42.918;12.366;2023-03-23T00:31:02;5.53;;;4.43;;
56457;SDS011;42360;42.918;12.366;2023-03-23T00:33:30;5.80;;;5.00;;
56457;SDS011;42360;42.918;12.366;2023-03-23T00:35:58;7.35;;;5.57;;
56457;SDS011;42360;42.918;12.366;2023-03-23T00:38:24;7.70;;;5.18;;
56457;SDS011;42360;42.918;12.366;2023-03-23T00:40:50;7.70;;;4.93;;
56457;SDS011;42360;42.918;12.366;2023-03-23T00:43:17;8.43;;;5.75;;
56457;SDS011;42360;42.918;12.366;2023-03-23T00:45:43;7.28;;;5.78;;
56457;SDS011;42360;42.918;12.366;2023-03-23T00:48:10;8.27;;;5.13;;
56457;SDS011;42360;42.918;12.366;2023-03-23T00:50:39;6.90;;;4.53;;
56457;SDS011;42360;42.918;12.366;2023-03-23T00:53:05;5.15;;;4.20;;
56457;SDS011;42360;42.918;12.366;2023-03-23T00:55:30;5.78;;;4.10;;
56457;SDS011;42360;42.918;12.366;2023-03-23T00:57:56;7.57;;;5.35;;
56457;SDS011;42360;42.918;12.366;2023-03-23T01:00:21;6.38;;;4.63;;
56457;SDS011;42360;42.918;12.366;2023-03-23T01:02:48;6.78;;;4.93;;
56457;SDS011;42360;42.918;12.366;2023-03-23T01:05:16;6.70;;;4.53;;
56457;SDS011;42360;42.918;12.366;2023-03-23T01:07:43;5.05;;;4.20;;
56457;SDS011;42360;42.918;12.366;2023-03-23T01:10:09;6.95;;;4.78;;
56457;SDS011;42360;42.918;12.366;2023-03-23T01:12:38;6.50;;;3.90;;
56457;SDS011;42360;42.918;12.366;2023-03-23T01:15:04;6.53;;;4.30;;
56457;SDS011;42360;42.918;12.366;2023-03-23T01:17:31;4.90;;;3.80;;
56457;SDS011;42360;42.918;12.366;2023-03-23T01:19:56;6.00;;;4.22;;
56457;SDS011;42360;42.918;12.366;2023-03-23T01:22:22;5.35;;;3.70;;
56457;SDS011;42360;42.918;12.366;2023-03-23T01:24:47;4.63;;;3.50;;
56457;SDS011;42360;42.918;12.366;2023-03-23T01:27:13;8.27;;;3.95;;
56457;SDS011;42360;42.918;12.366;2023-03-23T01:29:39;7.00;;;4.43;;
56457;SDS011;42360;42.918;12.366;2023-03-23T01:32:05;5.35;;;3.88;;
56457;SDS011;42360;42.918;12.366;2023-03-23T01:34:30;5.25;;;4.35;;
56457;SDS011;42360;42.918;12.366;2023-03-23T01:36:56;5.60;;;4.20;;
56457;SDS011;42360;42.918;12.366;2023-03-23T01:39:22;9.18;;;5.35;;
56457;SDS011;42360;42.918;12.366;2023-03-23T01:41:47;6.65;;;4.50;;
56457;SDS011;42360;42.918;12.366;2023-03-23T01:46:42;6.03;;;4.75;;
56457;SDS011;42360;42.918;12.366;2023-03-23T01:49:19;6.00;;;4.25;;
56457;SDS011;42360;42.918;12.366;2023-03-23T01:54:17;5.13;;;3.80;;
56457;SDS011;42360;42.918;12.366;2023-03-23T01:56:47;5.63;;;3.97;;
56457;SDS011;42360;42.918;12.366;2023-03-23T01:59:17;7.28;;;4.38;;
56457;SDS011;42360;42.918;12.366;2023-03-23T02:01:44;5.03;;;3.72;;
56457;SDS011;42360;42.918;12.366;2023-03-23T02:04:12;7.03;;;4.32;;
56457;SDS011;42360;42.918;12.366;2023-03-23T02:06:39;5.25;;;3.75;;
56457;SDS011;42360;42.918;12.366;2023-03-23T02:09:05;4.80;;;3.78;;
56457;SDS011;42360;42.918;12.366;2023-03-23T02:11:31;6.47;;;3.47;;
56457;SDS011;42360;42.918;12.366;2023-03-23T02:13:57;4.75;;;3.35;;
56457;SDS011;42360;42.918;12.366;2023-03-23T02:38:28;6.47;;;4.43;;
56457;SDS011;42360;42.918;12.366;2023-03-23T02:40:57;5.80;;;4.28;;
56457;SDS011;42360;42.918;12.366;2023-03-23T02:43:25;5.47;;;4.25;;
56457;SDS011;42360;42.918;12.366;2023-03-23T02:45:54;6.68;;;3.92;;
56457;SDS011;42360;42.918;12.366;2023-03-23T02:48:22;5.28;;;4.20;;
56457;SDS011;42360;42.918;12.366;2023-03-23T02:50:51;4.65;;;4.10;;
56457;SDS011;42360;42.918;12.366;2023-03-23T02:53:18;4.20;;;3.60;;
56457;SDS011;42360;42.918;12.366;2023-03-23T02:55:46;6.85;;;4.50;;
56457;SDS011;42360;42.918;12.366;2023-03-23T02:58:13;6.20;;;4.40;;
56457;SDS011;42360;42.918;12.366;2023-03-23T03:00:39;5.20;;;3.95;;
56457;SDS011;42360;42.918;12.366;2023-03-23T03:03:05;6.45;;;4.90;;
56457;SDS011;42360;42.918;12.366;2023-03-23T03:11:17;5.20;;;3.67;;
56457;SDS011;42360;42.918;12.366;2023-03-23T03:13:51;6.68;;;4.43;;
56457;SDS011;42360;42.918;12.366;2023-03-23T03:16:48;5.78;;;4.07;;
56457;SDS011;42360;42.918;12.366;2023-03-23T03:21:50;5.00;;;4.07;;
56457;SDS011;42360;42.918;12.366;2023-03-23T03:24:18;7.40;;;4.82;;
56457;SDS011;42360;42.918;12.366;2023-03-23T03:26:45;5.95;;;4.13;;
56457;SDS011;42360;42.918;12.366;2023-03-23T03:29:22;4.63;;;3.42;;
56457;SDS011;42360;42.918;12.366;2023-03-23T03:31:50;5.15;;;3.58;;
56457;SDS011;42360;42.918;12.366;2023-03-23T03:34:17;3.53;;;2.85;;
56457;SDS011;42360;42.918;12.366;2023-03-23T03:36:45;4.03;;;3.08;;
56457;SDS011;42360;42.918;12.366;2023-03-23T03:39:13;4.13;;;2.60;;
56457;SDS011;42360;42.918;12.366;2023-03-23T03:41:40;6.18;;;2.95;;
56457;SDS011;42360;42.918;12.366;2023-03-23T03:44:06;5.15;;;3.28;;
56457;SDS011;42360;42.918;12.366;2023-03-23T03:46:33;4.85;;;3.13;;
56457;SDS011;42360;42.918;12.366;2023-03-23T03:49:01;4.20;;;3.30;;
56457;SDS011;42360;42.918;12.366;2023-03-23T03:51:28;4.78;;;3.42;;
56457;SDS011;42360;42.918;12.366;2023-03-23T03:53:55;3.58;;;2.80;;
56457;SDS011;42360;42.918;12.366;2023-03-23T03:56:21;4.22;;;3.38;;
56457;SDS011;42360;42.918;12.366;2023-03-23T03:58:48;7.15;;;3.40;;
56457;SDS011;42360;42.918;12.366;2023-03-23T04:01:15;4.07;;;3.00;;
56457;SDS011;42360;42.918;12.366;2023-03-23T04:03:41;4.45;;;2.90;;
56457;SDS011;42360;42.918;12.366;2023-03-23T04:06:07;4.03;;;2.85;;
56457;SDS011;42360;42.918;12.366;2023-03-23T04:08:34;5.55;;;3.38;;
56457;SDS011;42360;42.918;12.366;2023-03-23T04:11:02;4.60;;;3.22;;
56457;SDS011;42360;42.918;12.366;2023-03-23T04:13:29;3.90;;;2.60;;
56457;SDS011;42360;42.918;12.366;2023-03-23T04:15:55;3.55;;;2.80;;
56457;SDS011;42360;42.918;12.366;2023-03-23T04:18:20;3.45;;;2.22;;
56457;SDS011;42360;42.918;12.366;2023-03-23T04:20:47;3.28;;;2.70;;
56457;SDS011;42360;42.918;12.366;2023-03-23T04:23:14;3.03;;;2.10;;
56457;SDS011;42360;42.918;12.366;2023-03-23T04:25:45;2.92;;;1.95;;
56457;SDS011;42360;42.918;12.366;2023-03-23T04:28:12;4.82;;;3.00;;
56457;SDS011;42360;42.918;12.366;2023-03-23T04:30:38;3.00;;;2.70;;
56457;SDS011;42360;42.918;12.366;2023-03-23T04:33:03;3.28;;;2.67;;
56457;SDS011;42360;42.918;12.366;2023-03-23T04:35:29;5.72;;;3.03;;
56457;SDS011;42360;42.918;12.366;2023-03-23T04:37:55;3.72;;;2.70;;
56457;SDS011;42360;42.918;12.366;2023-03-23T04:40:21;3.28;;;2.80;;
56457;SDS011;42360;42.918;12.366;2023-03-23T04:42:47;3.53;;;3.00;;
56457;SDS011;42360;42.918;12.366;2023-03-23T04:45:15;3.92;;;2.78;;
56457;SDS011;42360;42.918;12.366;2023-03-23T04:47:47;3.10;;;2.60;;
56457;SDS011;42360;42.918;12.366;2023-03-23T04:50:22;3.45;;;2.35;;
56457;SDS011;42360;42.918;12.366;2023-03-23T04:52:49;4.43;;;2.50;;
56457;SDS011;42360;42.918;12.366;2023-03-23T04:55:17;3.47;;;2.13;;
56457;SDS011;42360;42.918;12.366;2023-03-23T04:57:43;3.35;;;2.28;;
56457;SDS011;42360;42.918;12.366;2023-03-23T05:00:09;2.08;;;1.88;;
56457;SDS011;42360;42.918;12.366;2023-03-23T05:02:41;3.10;;;1.83;;
56457;SDS011;42360;42.918;12.366;2023-03-23T05:05:16;2.10;;;1.83;;
56457;SDS011;42360;42.918;12.366;2023-03-23T05:07:42;3.17;;;2.03;;
56457;SDS011;42360;42.918;12.366;2023-03-23T05:10:09;5.65;;;1.65;;
56457;SDS011;42360;42.918;12.366;2023-03-23T05:12:35;1.50;;;1.40;;
56457;SDS011;42360;42.918;12.366;2023-03-23T05:15:01;4.13;;;1.70;;
56457;SDS011;42360;42.918;12.366;2023-03-23T05:17:27;3.15;;;2.17;;
56457;SDS011;42360;42.918;12.366;2023-03-23T05:19:55;3.05;;;2.50;;
56457;SDS011;42360;42.918;12.366;2023-03-23T05:22:21;5.55;;;3.33;;
56457;SDS011;42360;42.918;12.366;2023-03-23T05:24:48;3.28;;;2.50;;
56457;SDS011;42360;42.918;12.366;2023-03-23T05:27:16;3.40;;;2.28;;
56457;SDS011;42360;42.918;12.366;2023-03-23T05:29:43;3.05;;;2.33;;
56457;SDS011;42360;42.918;12.366;2023-03-23T05:32:11;3.15;;;2.58;;
56457;SDS011;42360;42.918;12.366;2023-03-23T05:34:36;3.70;;;2.60;;
56457;SDS011;42360;42.918;12.366;2023-03-23T05:37:02;2.83;;;2.30;;
56457;SDS011;42360;42.918;12.366;2023-03-23T05:39:29;5.78;;;2.38;;
56457;SDS011;42360;42.918;12.366;2023-03-23T05:41:56;2.30;;;2.10;;
56457;SDS011;42360;42.918;12.366;2023-03-23T05:44:23;2.92;;;2.53;;
56457;SDS011;42360;42.918;12.366;2023-03-23T05:46:49;2.78;;;2.47;;
56457;SDS011;42360;42.918;12.366;2023-03-23T05:49:15;3.33;;;2.63;;
56457;SDS011;42360;42.918;12.366;2023-03-23T05:51:41;3.10;;;2.70;;
56457;SDS011;42360;42.918;12.366;2023-03-23T05:54:09;7.32;;;2.92;;
56457;SDS011;42360;42.918;12.366;2023-03-23T05:56:35;3.50;;;2.60;;
56457;SDS011;42360;42.918;12.366;2023-03-23T05:59:01;3.95;;;2.85;;
56457;SDS011;42360;42.918;12.366;2023-03-23T06:01:28;4.18;;;2.13;;
56457;SDS011;42360;42.918;12.366;2023-03-23T06:03:54;3.03;;;2.33;;
56457;SDS011;42360;42.918;12.366;2023-03-23T06:06:23;3.65;;;2.70;;
56457;SDS011;42360;42.918;12.366;2023-03-23T06:08:53;3.65;;;2.78;;
56457;SDS011;42360;42.918;12.366;2023-03-23T06:11:19;5.13;;;2.75;;
56457;SDS011;42360;42.918;12.366;2023-03-23T06:13:44;3.92;;;2.63;;
56457;SDS011;42360;42.918;12.366;2023-03-23T06:16:10;4.32;;;2.90;;
56457;SDS011;42360;42.918;12.366;2023-03-23T06:18:36;6.65;;;3.90;;
56457;SDS011;42360;42.918;12.366;2023-03-23T06:21:04;4.85;;;3.65;;
56457;SDS011;42360;42.918;12.366;2023-03-23T06:23:31;4.18;;;3.20;;
56457;SDS011;42360;42.918;12.366;2023-03-23T06:25:57;4.40;;;3.47;;
56457;SDS011;42360;42.918;12.366;2023-03-23T06:28:24;4.95;;;4.35;;
56457;SDS011;42360;42.918;12.366;2023-03-23T06:30:49;11.93;;;9.27;;
56457;SDS011;42360;42.918;12.366;2023-03-23T06:33:15;13.77;;;10.75;;
56457;SDS011;42360;42.918;12.366;2023-03-23T06:35:42;17.33;;;11.73;;
56457;SDS011;42360;42.918;12.366;2023-03-23T06:38:08;18.38;;;12.13;;
56457;SDS011;42360;42.918;12.366;2023-03-23T06:40:33;16.50;;;9.90;;
56457;SDS011;42360;42.918;12.366;2023-03-23T06:43:01;7.97;;;4.72;;
56457;SDS011;42360;42.918;12.366;2023-03-23T06:45:27;5.68;;;3.60;;
56457;SDS011;42360;42.918;12.366;2023-03-23T06:47:52;4.38;;;2.70;;
56457;SDS011;42360;42.918;12.366;2023-03-23T06:50:18;5.28;;;3.50;;
56457;SDS011;42360;42.918;12.366;2023-03-23T06:52:47;6.40;;;3.28;;
56457;SDS011;42360;42.918;12.366;2023-03-23T06:55:14;4.97;;;3.95;;
56457;SDS011;42360;42.918;12.366;2023-03-23T06:57:40;4.50;;;3.53;;
56457;SDS011;42360;42.918;12.366;2023-03-23T07:00:06;5.53;;;3.55;;
56457;SDS011;42360;42.918;12.366;2023-03-23T07:02:34;5.13;;;3.88;;
56457;SDS011;42360;42.918;12.366;2023-03-23T07:05:00;5.03;;;3.78;;
56457;SDS011;42360;42.918;12.366;2023-03-23T07:07:26;4.57;;;3.78;;
56457;SDS011;42360;42.918;12.366;2023-03-23T07:09:51;4.55;;;4.03;;
56457;SDS011;42360;42.918;12.366;2023-03-23T07:12:17;5.45;;;4.20;;
56457;SDS011;42360;42.918;12.366;2023-03-23T07:14:42;5.85;;;4.43;;
56457;SDS011;42360;42.918;12.366;2023-03-23T07:17:08;6.45;;;4.72;;
56457;SDS011;42360;42.918;12.366;2023-03-23T07:19:34;5.18;;;4.30;;
56457;SDS011;42360;42.918;12.366;2023-03-23T07:22:01;6.50;;;4.18;;
56457;SDS011;42360;42.918;12.366;2023-03-23T07:24:26;5.03;;;4.20;;
56457;SDS011;42360;42.918;12.366;2023-03-23T07:26:52;6.53;;;4.75;;
56457;SDS011;42360;42.918;12.366;2023-03-23T07:29:18;8.18;;;4.80;;
56457;SDS011;42360;42.918;12.366;2023-03-23T07:31:43;7.10;;;4.80;;
56457;SDS011;42360;42.918;12.366;2023-03-23T07:34:09;5.82;;;4.57;;
56457;SDS011;42360;42.918;12.366;2023-03-23T07:36:34;7.40;;;4.80;;
56457;SDS011;42360;42.918;12.366;2023-03-23T07:39:02;7.60;;;5.65;;
56457;SDS011;42360;42.918;12.366;2023-03-23T07:41:33;6.15;;;5.03;;
56457;SDS011;42360;42.918;12.366;2023-03-23T07:43:59;7.85;;;6.00;;
56457;SDS011;42360;42.918;12.366;2023-03-23T07:46:24;8.60;;;5.75;;
56457;SDS011;42360;42.918;12.366;2023-03-23T07:48:50;8.00;;;5.93;;
56457;SDS011;42360;42.918;12.366;2023-03-23T07:51:16;7.47;;;5.97;;
56457;SDS011;42360;42.918;12.366;2023-03-23T07:53:43;7.32;;;6.22;;
56457;SDS011;42360;42.918;12.366;2023-03-23T07:56:12;6.32;;;5.07;;
56457;SDS011;42360;42.918;12.366;2023-03-23T07:58:40;7.07;;;6.10;;
56457;SDS011;42360;42.918;12.366;2023-03-23T08:01:06;8.63;;;6.00;;
56457;SDS011;42360;42.918;12.366;2023-03-23T08:03:32;6.68;;;5.97;;
56457;SDS011;42360;42.918;12.366;2023-03-23T08:05:58;8.75;;;5.68;;
56457;SDS011;42360;42.918;12.366;2023-03-23T08:08:24;9.30;;;6.13;;
56457;SDS011;42360;42.918;12.366;2023-03-23T08:10:53;7.78;;;5.47;;
56457;SDS011;42360;42.918;12.366;2023-03-23T08:13:18;9.07;;;5.60;;
56457;SDS011;42360;42.918;12.366;2023-03-23T08:15:44;8.18;;;5.70;;
56457;SDS011;42360;42.918;12.366;2023-03-23T08:18:13;5.25;;;4.60;;
56457;SDS011;42360;42.918;12.366;2023-03-23T08:20:38;6.32;;;4.82;;
56457;SDS011;42360;42.918;12.366;2023-03-23T08:23:05;6.05;;;5.05;;
56457;SDS011;42360;42.918;12.366;2023-03-23T08:25:31;6.45;;;4.90;;
56457;SDS011;42360;42.918;12.366;2023-03-23T08:27:57;5.38;;;4.57;;
56457;SDS011;42360;42.918;12.366;2023-03-23T08:30:24;6.18;;;4.40;;
56457;SDS011;42360;42.918;12.366;2023-03-23T08:32:51;5.53;;;4.85;;
56457;SDS011;42360;42.918;12.366;2023-03-23T08:35:17;7.15;;;5.15;;
56457;SDS011;42360;42.918;12.366;2023-03-23T08:37:44;6.82;;;4.80;;
56457;SDS011;42360;42.918;12.366;2023-03-23T08:40:11;7.25;;;5.43;;
56457;SDS011;42360;42.918;12.366;2023-03-23T08:42:40;5.85;;;5.07;;
56457;SDS011;42360;42.918;12.366;2023-03-23T08:45:11;7.03;;;5.40;;
56457;SDS011;42360;42.918;12.366;2023-03-23T08:47:40;8.30;;;5.10;;
56457;SDS011;42360;42.918;12.366;2023-03-23T08:50:06;5.93;;;4.95;;
56457;SDS011;42360;42.918;12.366;2023-03-23T08:52:34;8.30;;;5.18;;
56457;SDS011;42360;42.918;12.366;2023-03-23T08:55:07;5.55;;;4.63;;
56457;SDS011;42360;42.918;12.366;2023-03-23T08:57:36;7.13;;;4.47;;
56457;SDS011;42360;42.918;12.366;2023-03-23T09:00:05;6.15;;;4.80;;
56457;SDS011;42360;42.918;12.366;2023-03-23T09:02:42;8.32;;;4.57;;
56457;SDS011;42360;42.918;12.366;2023-03-23T09:05:12;5.05;;;4.10;;
56457;SDS011;42360;42.918;12.366;2023-03-23T09:07:39;5.28;;;4.53;;
56457;SDS011;42360;42.918;12.366;2023-03-23T09:10:07;6.03;;;4.75;;
56457;SDS011;42360;42.918;12.366;2023-03-23T09:12:33;5.53;;;4.10;;
56457;SDS011;42360;42.918;12.366;2023-03-23T09:14:59;4.57;;;4.13;;
56457;SDS011;42360;42.918;12.366;2023-03-23T09:17:25;5.72;;;4.75;;
56457;SDS011;42360;42.918;12.366;2023-03-23T09:19:50;6.88;;;5.07;;
56457;SDS011;42360;42.918;12.366;2023-03-23T09:22:16;7.78;;;4.97;;
56457;SDS011;42360;42.918;12.366;2023-03-23T09:24:45;7.65;;;4.85;;
56457;SDS011;42360;42.918;12.366;2023-03-23T09:27:11;5.30;;;4.13;;
56457;SDS011;42360;42.918;12.366;2023-03-23T09:29:37;6.72;;;4.80;;
56457;SDS011;42360;42.918;12.366;2023-03-23T09:32:03;4.45;;;4.05;;
56457;SDS011;42360;42.918;12.366;2023-03-23T09:34:29;4.57;;;4.03;;
56457;SDS011;42360;42.918;12.366;2023-03-23T09:36:54;7.45;;;4.50;;
56457;SDS011;42360;42.918;12.366;2023-03-23T09:39:20;7.78;;;4.60;;
56457;SDS011;42360;42.918;12.366;2023-03-23T09:41:57;5.15;;;4.18;;
56457;SDS011;42360;42.918;12.366;2023-03-23T09:53:01;8.57;;;5.70;;
56457;SDS011;42360;42.918;12.366;2023-03-23T09:55:39;7.47;;;5.88;;
56457;SDS011;42360;42.918;12.366;2023-03-23T10:00:43;7.78;;;5.85;;
56457;SDS011;42360;42.918;12.366;2023-03-23T10:03:30;7.28;;;5.05;;
56457;SDS011;42360;42.918;12.366;2023-03-23T10:05:58;6.15;;;3.97;;
56457;SDS011;42360;42.918;12.366;2023-03-23T10:08:24;5.13;;;3.95;;
56457;SDS011;42360;42.918;12.366;2023-03-23T10:11:03;5.85;;;4.75;;
56457;SDS011;42360;42.918;12.366;2023-03-23T10:16:30;4.57;;;2.85;;
56457;SDS011;42360;42.918;12.366;2023-03-23T10:19:09;5.13;;;2.90;;
56457;SDS011;42360;42.918;12.366;2023-03-23T10:21:55;4.35;;;2.92;;
56457;SDS011;42360;42.918;12.366;2023-03-23T10:24:26;5.47;;;3.20;;
56457;SDS011;42360;42.918;12.366;2023-03-23T10:27:10;6.63;;;3.80;;
56457;SDS011;42360;42.918;12.366;2023-03-23T10:32:55;4.80;;;3.67;;
56457;SDS011;42360;42.918;12.366;2023-03-23T10:35:28;6.05;;;3.85;;
56457;SDS011;42360;42.918;12.366;2023-03-23T10:38:22;3.90;;;3.17;;
56457;SDS011;42360;42.918;12.366;2023-03-23T10:40:54;5.25;;;3.50;;
56457;SDS011;42360;42.918;12.366;2023-03-23T10:43:24;3.60;;;3.30;;
56457;SDS011;42360;42.918;12.366;2023-03-23T10:46:01;4.97;;;3.25;;
56457;SDS011;42360;42.918;12.366;2023-03-23T10:48:30;4.82;;;3.15;;
56457;SDS011;42360;42.918;12.366;2023-03-23T10:51:00;4.38;;;2.88;;
56457;SDS011;42360;42.918;12.366;2023-03-23T10:53:38;5.20;;;3.40;;
56457;SDS011;42360;42.918;12.366;2023-03-23T10:56:25;3.70;;;3.30;;
56457;SDS011;42360;42.918;12.366;2023-03-23T10:58:53;4.63;;;3.17;;
56457;SDS011;42360;42.918;12.366;2023-03-23T11:01:20;6.22;;;3.60;;
56457;SDS011;42360;42.918;12.366;2023-03-23T11:03:55;4.22;;;3.47;;
56457;SDS011;42360;42.918;12.366;2023-03-23T11:06:22;4.07;;;3.30;;
56457;SDS011;42360;42.918;12.366;2023-03-23T11:08:54;4.82;;;3.25;;
56457;SDS011;42360;42.918;12.366;2023-03-23T11:11:25;3.60;;;3.30;;
56457;SDS011;42360;42.918;12.366;2023-03-23T11:14:02;4.45;;;3.03;;
56457;SDS011;42360;42.918;12.366;2023-03-23T11:16:51;4.03;;;3.03;;
56457;SDS011;42360;42.918;12.366;2023-03-23T11:19:36;4.07;;;3.13;;
56457;SDS011;42360;42.918;12.366;2023-03-23T11:24:30;4.00;;;3.35;;
56457;SDS011;42360;42.918;12.366;2023-03-23T11:26:57;5.03;;;3.17;;
56457;SDS011;42360;42.918;12.366;2023-03-23T11:29:27;3.10;;;2.28;;
56457;SDS011;42360;42.918;12.366;2023-03-23T11:32:01;3.38;;;2.88;;
56457;SDS011;42360;42.918;12.366;2023-03-23T11:34:45;3.50;;;2.60;;
56457;SDS011;42360;42.918;12.366;2023-03-23T11:37:14;3.00;;;2.63;;
56457;SDS011;42360;42.918;12.366;2023-03-23T11:39:49;3.08;;;2.80;;
56457;SDS011;42360;42.918;12.366;2023-03-23T11:42:35;3.03;;;2.20;;
56457;SDS011;42360;42.918;12.366;2023-03-23T11:45:14;3.72;;;2.40;;
56457;SDS011;42360;42.918;12.366;2023-03-23T11:47:50;3.88;;;2.90;;
56457;SDS011;42360;42.918;12.366;2023-03-23T11:53:18;3.38;;;2.60;;
56457;SDS011;42360;42.918;12.366;2023-03-23T11:56:03;3.20;;;2.28;;
56457;SDS011;42360;42.918;12.366;2023-03-23T11:58:32;2.88;;;2.35;;
56457;SDS011;42360;42.918;12.366;2023-03-23T12:01:00;4.68;;;2.20;;
56457;SDS011;42360;42.918;12.366;2023-03-23T12:17:05;4.10;;;2.05;;
56457;SDS011;42360;42.918;12.366;2023-03-23T12:20:03;2.30;;;2.00;;
56457;SDS011;42360;42.918;12.366;2023-03-23T12:22:52;2.80;;;1.80;;
56457;SDS011;42360;42.918;12.366;2023-03-23T12:58:32;2.17;;;1.50;;
56457;SDS011;42360;42.918;12.366;2023-03-23T13:01:09;1.60;;;1.30;;
56457;SDS011;42360;42.918;12.366;2023-03-23T13:03:58;3.13;;;1.50;;
56457;SDS011;42360;42.918;12.366;2023-03-23T13:06:47;2.08;;;1.50;;
56457;SDS011;42360;42.918;12.366;2023-03-23T13:11:57;1.70;;;1.42;;
56457;SDS011;42360;42.918;12.366;2023-03-23T13:22:57;2.13;;;1.40;;
56457;SDS011;42360;42.918;12.366;2023-03-23T13:28:20;2.88;;;1.50;;
56457;SDS011;42360;42.918;12.366;2023-03-23T13:31:10;2.83;;;1.45;;
56457;SDS011;42360;42.918;12.366;2023-03-23T13:33:49;1.98;;;1.55;;
56457;SDS011;42360;42.918;12.366;2023-03-23T13:36:16;1.85;;;1.65;;
56457;SDS011;42360;42.918;12.366;2023-03-23T13:38:51;2.08;;;1.67;;
56457;SDS011;42360;42.918;12.366;2023-03-23T13:41:17;1.98;;;1.45;;
56457;SDS011;42360;42.918;12.366;2023-03-23T13:43:46;2.55;;;1.30;;
56457;SDS011;42360;42.918;12.366;2023-03-23T13:46:33;1.50;;;1.40;;
56457;SDS011;42360;42.918;12.366;2023-03-23T13:49:05;2.08;;;1.45;;
56457;SDS011;42360;42.918;12.366;2023-03-23T13:57:32;3.38;;;1.60;;
56457;SDS011;42360;42.918;12.366;2023-03-23T14:00:09;2.53;;;1.80;;
56457;SDS011;42360;42.918;12.366;2023-03-23T14:11:19;3.30;;;1.75;;
56457;SDS011;42360;42.918;12.366;2023-03-23T14:16:23;3.03;;;1.85;;
56457;SDS011;42360;42.918;12.366;2023-03-23T14:18:58;2.38;;;1.65;;
56457;SDS011;42360;42.918;12.366;2023-03-23T14:21:35;2.88;;;1.90;;
56457;SDS011;42360;42.918;12.366;2023-03-23T14:24:09;2.67;;;2.00;;
56457;SDS011;42360;42.918;12.366;2023-03-23T14:26:41;3.63;;;2.22;;
56457;SDS011;42360;42.918;12.366;2023-03-23T14:29:09;3.10;;;2.15;;
56457;SDS011;42360;42.918;12.366;2023-03-23T14:31:35;2.38;;;2.17;;
56457;SDS011;42360;42.918;12.366;2023-03-23T14:34:12;5.25;;;2.15;;
56457;SDS011;42360;42.918;12.366;2023-03-23T14:36:39;2.25;;;1.92;;
56457;SDS011;42360;42.918;12.366;2023-03-23T14:41:54;2.10;;;1.90;;
56457;SDS011;42360;42.918;12.366;2023-03-23T14:44:25;2.40;;;2.20;;
56457;SDS011;42360;42.918;12.366;2023-03-23T14:46:53;3.80;;;1.80;;
56457;SDS011;42360;42.918;12.366;2023-03-23T14:49:22;3.50;;;2.15;;
56457;SDS011;42360;42.918;12.366;2023-03-23T14:51:54;1.98;;;1.70;;
56457;SDS011;42360;42.918;12.366;2023-03-23T14:54:22;2.45;;;2.05;;
56457;SDS011;42360;42.918;12.366;2023-03-23T14:56:49;4.15;;;2.30;;
56457;SDS011;42360;42.918;12.366;2023-03-23T14:59:15;4.03;;;2.08;;
56457;SDS011;42360;42.918;12.366;2023-03-23T15:01:40;5.32;;;2.60;;
56457;SDS011;42360;42.918;12.366;2023-03-23T15:04:11;7.68;;;3.15;;
56457;SDS011;42360;42.918;12.366;2023-03-23T15:06:42;2.17;;;2.08;;
56457;SDS011;42360;42.918;12.366;2023-03-23T15:09:12;2.47;;;1.50;;
56457;SDS011;42360;42.918;12.366;2023-03-23T15:11:41;1.52;;;1.42;;
56457;SDS011;42360;42.918;12.366;2023-03-23T15:14:14;9.88;;;2.58;;
56457;SDS011;42360;42.918;12.366;2023-03-23T15:16:45;3.47;;;2.15;;
56457;SDS011;42360;42.918;12.366;2023-03-23T15:19:16;2.67;;;1.95;;
56457;SDS011;42360;42.918;12.366;2023-03-23T15:24:27;2.13;;;1.92;;
56457;SDS011;42360;42.918;12.366;2023-03-23T15:32:21;2.70;;;1.60;;
56457;SDS011;42360;42.918;12.366;2023-03-23T15:34:52;1.40;;;1.30;;
56457;SDS011;42360;42.918;12.366;2023-03-23T15:39:53;2.70;;;1.83;;
56457;SDS011;42360;42.918;12.366;2023-03-23T15:42:25;3.47;;;1.80;;
56457;SDS011;42360;42.918;12.366;2023-03-23T15:45:14;3.55;;;2.70;;
56457;SDS011;42360;42.918;12.366;2023-03-23T15:47:47;3.28;;;2.25;;
56457;SDS011;42360;42.918;12.366;2023-03-23T15:52:43;5.10;;;2.78;;
56457;SDS011;42360;42.918;12.366;2023-03-23T15:57:46;2.55;;;1.80;;
56457;SDS011;42360;42.918;12.366;2023-03-23T16:00:12;2.75;;;1.70;;
56457;SDS011;42360;42.918;12.366;2023-03-23T16:02:38;1.58;;;1.30;;
56457;SDS011;42360;42.918;12.366;2023-03-23T16:05:03;5.38;;;1.83;;
56457;SDS011;42360;42.918;12.366;2023-03-23T16:07:29;1.90;;;1.50;;
56457;SDS011;42360;42.918;12.366;2023-03-23T16:09:55;2.35;;;1.42;;
56457;SDS011;42360;42.918;12.366;2023-03-23T16:12:20;2.47;;;1.60;;
56457;SDS011;42360;42.918;12.366;2023-03-23T16:14:46;2.58;;;1.83;;
56457;SDS011;42360;42.918;12.366;2023-03-23T16:17:13;1.67;;;1.58;;
56457;SDS011;42360;42.918;12.366;2023-03-23T16:19:40;2.40;;;1.70;;
56457;SDS011;42360;42.918;12.366;2023-03-23T16:22:07;2.08;;;1.70;;
56457;SDS011;42360;42.918;12.366;2023-03-23T16:24:32;2.97;;;1.90;;
56457;SDS011;42360;42.918;12.366;2023-03-23T16:26:58;2.15;;;1.83;;
56457;SDS011;42360;42.918;12.366;2023-03-23T16:29:23;3.28;;;1.90;;
56457;SDS011;42360;42.918;12.366;2023-03-23T16:31:49;3.00;;;2.05;;
56457;SDS011;42360;42.918;12.366;2023-03-23T16:34:15;4.90;;;2.00;;
56457;SDS011;42360;42.918;12.366;2023-03-23T16:36:40;3.83;;;2.03;;
56457;SDS011;42360;42.918;12.366;2023-03-23T16:39:06;3.53;;;2.05;;
56457;SDS011;42360;42.918;12.366;2023-03-23T16:41:31;3.13;;;2.40;;
56457;SDS011;42360;42.918;12.366;2023-03-23T16:43:57;3.17;;;1.98;;
56457;SDS011;42360;42.918;12.366;2023-03-23T16:46:23;2.72;;;2.10;;
56457;SDS011;42360;42.918;12.366;2023-03-23T16:48:48;3.17;;;2.00;;
56457;SDS011;42360;42.918;12.366;2023-03-23T16:51:14;2.95;;;2.05;;
56457;SDS011;42360;42.918;12.366;2023-03-23T16:53:40;2.45;;;2.25;;
56457;SDS011;42360;42.918;12.366;2023-03-23T16:56:05;2.28;;;1.80;;
56457;SDS011;42360;42.918;12.366;2023-03-23T16:58:31;2.28;;;1.77;;
56457;SDS011;42360;42.918;12.366;2023-03-23T17:00:56;2.75;;;1.90;;
56457;SDS011;42360;42.918;12.366;2023-03-23T17:03:22;3.63;;;2.00;;
56457;SDS011;42360;42.918;12.366;2023-03-23T17:05:48;3.67;;;2.35;;
56457;SDS011;42360;42.918;12.366;2023-03-23T17:08:15;3.50;;;2.10;;
56457;SDS011;42360;42.918;12.366;2023-03-23T17:10:41;2.85;;;2.63;;
56457;SDS011;42360;42.918;12.366;2023-03-23T17:13:08;8.30;;;2.63;;
56457;SDS011;42360;42.918;12.366;2023-03-23T17:15:37;3.38;;;2.75;;
56457;SDS011;42360;42.918;12.366;2023-03-23T17:18:04;4.88;;;3.10;;